sensor_id;sensor_type;location;lat;lon;timestamp;pressure;altitude;pressure_sealevel;temperature;humidity
18533;BME280;9396;51.510;11.934;2023-04-19T00:00:59;101558.50;;;9.72;87.57
18533;BME280;9396;51.510;11.934;2023-04-19T00:03:26;101558.78;;;9.80;86.33
18533;BME280;9396;51.510;11.934;2023-04-19T00:05:55;101558.19;;;9.77;86.33
18533;BME280;9396;51.510;11.934;2023-04-19T00:08:23;101566.03;;;9.78;86.15
18533;BME280;9396;51.510;11.934;2023-04-19T00:10:50;101558.06;;;9.89;86.76
18533;BME280;9396;51.510;11.934;2023-04-19T00:13:16;101556.84;;;9.82;86.73
18533;BME280;9396;51.510;11.934;2023-04-19T00:15:43;101562.38;;;9.79;87.41
18533;BME280;9396;51.510;11.934;2023-04-19T00:18:10;101564.69;;;9.84;86.67
18533;BME280;9396;51.510;11.934;2023-04-19T00:20:37;101556.72;;;9.72;87.77
18533;BME280;9396;51.510;11.934;2023-04-19T00:23:05;101563.63;;;9.75;87.48
18533;BME280;9396;51.510;11.934;2023-04-19T00:25:32;101562.13;;;9.49;87.97
18533;BME280;9396;51.510;11.934;2023-04-19T00:27:59;101558.75;;;9.58;88.28
18533;BME280;9396;51.510;11.934;2023-04-19T00:30:26;101559.25;;;9.52;88.28
18533;BME280;9396;51.510;11.934;2023-04-19T00:32:52;101564.25;;;9.33;88.72
18533;BME280;9396;51.510;11.934;2023-04-19T00:35:19;101559.56;;;9.36;88.85
18533;BME280;9396;51.510;11.934;2023-04-19T00:37:46;101572.72;;;9.27;89.47
18533;BME280;9396;51.510;11.934;2023-04-19T00:40:14;101564.81;;;9.14;89.74
18533;BME280;9396;51.510;11.934;2023-04-19T00:42:41;101570.22;;;8.78;89.63
18533;BME280;9396;51.510;11.934;2023-04-19T00:45:08;101573.91;;;8.88;90.81
18533;BME280;9396;51.510;11.934;2023-04-19T00:47:35;101566.03;;;8.87;90.69
18533;BME280;9396;51.510;11.934;2023-04-19T00:50:03;101562.88;;;8.82;91.41
18533;BME280;9396;51.510;11.934;2023-04-19T00:52:31;101569.91;;;8.83;91.28
18533;BME280;9396;51.510;11.934;2023-04-19T00:54:58;101564.19;;;8.76;91.26
18533;BME280;9396;51.510;11.934;2023-04-19T00:57:27;101562.16;;;8.80;91.49
18533;BME280;9396;51.510;11.934;2023-04-19T00:59:55;101557.03;;;8.65;91.82
18533;BME280;9396;51.510;11.934;2023-04-19T01:02:22;101554.19;;;8.80;91.93
18533;BME280;9396;51.510;11.934;2023-04-19T01:04:49;101555.66;;;8.84;92.26
18533;BME280;9396;51.510;11.934;2023-04-19T01:07:15;101554.91;;;8.58;93.17
18533;BME280;9396;51.510;11.934;2023-04-19T01:09:44;101560.63;;;8.41;93.33
18533;BME280;9396;51.510;11.934;2023-04-19T01:12:10;101560.25;;;8.34;93.86
18533;BME280;9396;51.510;11.934;2023-04-19T01:14:38;101559.53;;;8.56;93.13
18533;BME280;9396;51.510;11.934;2023-04-19T01:17:06;101559.25;;;8.35;93.68
18533;BME280;9396;51.510;11.934;2023-04-19T01:19:32;101563.19;;;8.30;95.05
18533;BME280;9396;51.510;11.934;2023-04-19T01:22:00;101560.66;;;8.28;94.52
18533;BME280;9396;51.510;11.934;2023-04-19T01:24:29;101562.78;;;8.23;94.41
18533;BME280;9396;51.510;11.934;2023-04-19T01:26:56;101554.00;;;8.10;95.50
18533;BME280;9396;51.510;11.934;2023-04-19T01:29:23;101558.41;;;8.22;95.35
18533;BME280;9396;51.510;11.934;2023-04-19T01:31:49;101564.91;;;8.18;95.04
18533;BME280;9396;51.510;11.934;2023-04-19T01:34:17;101559.94;;;8.26;94.29
18533;BME280;9396;51.510;11.934;2023-04-19T01:36:44;101556.53;;;8.24;94.08
18533;BME280;9396;51.510;11.934;2023-04-19T01:39:11;101552.72;;;8.28;93.82
18533;BME280;9396;51.510;11.934;2023-04-19T01:41:39;101551.03;;;8.27;93.53
18533;BME280;9396;51.510;11.934;2023-04-19T01:44:06;101556.84;;;8.20;93.56
18533;BME280;9396;51.510;11.934;2023-04-19T01:46:32;101558.25;;;8.13;93.03
18533;BME280;9396;51.510;11.934;2023-04-19T01:49:00;101555.09;;;7.95;93.69
18533;BME280;9396;51.510;11.934;2023-04-19T01:51:27;101556.50;;;7.88;94.03
18533;BME280;9396;51.510;11.934;2023-04-19T01:53:53;101546.84;;;7.87;93.38
18533;BME280;9396;51.510;11.934;2023-04-19T01:56:20;101548.31;;;7.91;92.29
18533;BME280;9396;51.510;11.934;2023-04-19T01:58:48;101553.84;;;7.88;91.44
18533;BME280;9396;51.510;11.934;2023-04-19T02:01:15;101554.91;;;7.73;92.07
18533;BME280;9396;51.510;11.934;2023-04-19T02:03:41;101558.09;;;7.66;90.48
18533;BME280;9396;51.510;11.934;2023-04-19T02:06:09;101561.28;;;7.45;90.63
18533;BME280;9396;51.510;11.934;2023-04-19T02:08:36;101558.84;;;7.42;90.35
18533;BME280;9396;51.510;11.934;2023-04-19T02:11:05;101560.84;;;7.51;89.81
18533;BME280;9396;51.510;11.934;2023-04-19T02:13:32;101558.53;;;7.47;88.40
18533;BME280;9396;51.510;11.934;2023-04-19T02:16:00;101556.50;;;7.25;89.41
18533;BME280;9396;51.510;11.934;2023-04-19T02:18:27;101563.16;;;7.18;90.45
18533;BME280;9396;51.510;11.934;2023-04-19T02:20:55;101554.88;;;7.10;89.17
18533;BME280;9396;51.510;11.934;2023-04-19T02:23:21;101553.97;;;7.24;88.85
18533;BME280;9396;51.510;11.934;2023-04-19T02:25:48;101544.84;;;7.03;88.25
18533;BME280;9396;51.510;11.934;2023-04-19T02:28:15;101554.06;;;7.10;88.48
18533;BME280;9396;51.510;11.934;2023-04-19T02:30:41;101546.13;;;7.10;87.97
18533;BME280;9396;51.510;11.934;2023-04-19T02:33:09;101545.59;;;7.05;87.41
18533;BME280;9396;51.510;11.934;2023-04-19T02:35:36;101551.13;;;6.88;88.57
18533;BME280;9396;51.510;11.934;2023-04-19T02:38:03;101547.41;;;6.78;88.44
18533;BME280;9396;51.510;11.934;2023-04-19T02:40:30;101542.34;;;6.87;88.23
18533;BME280;9396;51.510;11.934;2023-04-19T02:42:57;101547.09;;;6.82;86.56
18533;BME280;9396;51.510;11.934;2023-04-19T02:45:23;101547.00;;;6.84;87.71
18533;BME280;9396;51.510;11.934;2023-04-19T02:47:50;101546.53;;;6.65;87.92
18533;BME280;9396;51.510;11.934;2023-04-19T02:50:18;101545.84;;;6.88;88.76
18533;BME280;9396;51.510;11.934;2023-04-19T02:52:45;101552.72;;;6.78;87.80
18533;BME280;9396;51.510;11.934;2023-04-19T02:55:11;101551.22;;;6.74;87.93
18533;BME280;9396;51.510;11.934;2023-04-19T02:57:38;101545.91;;;6.74;88.01
18533;BME280;9396;51.510;11.934;2023-04-19T03:00:06;101558.00;;;6.78;89.36
18533;BME280;9396;51.510;11.934;2023-04-19T03:02:34;101550.59;;;6.83;87.74
18533;BME280;9396;51.510;11.934;2023-04-19T03:05:01;101537.31;;;6.97;87.47
18533;BME280;9396;51.510;11.934;2023-04-19T03:07:29;101544.19;;;6.99;86.99
18533;BME280;9396;51.510;11.934;2023-04-19T03:09:56;101534.56;;;6.98;87.30
18533;BME280;9396;51.510;11.934;2023-04-19T03:12:22;101533.06;;;7.07;87.17
18533;BME280;9396;51.510;11.934;2023-04-19T03:14:50;101538.84;;;7.26;86.42
18533;BME280;9396;51.510;11.934;2023-04-19T03:17:17;101536.81;;;7.17;86.67
18533;BME280;9396;51.510;11.934;2023-04-19T03:19:43;101531.63;;;7.03;87.15
18533;BME280;9396;51.510;11.934;2023-04-19T03:22:10;101529.59;;;6.94;86.84
18533;BME280;9396;51.510;11.934;2023-04-19T03:24:38;101532.19;;;6.81;87.46
18533;BME280;9396;51.510;11.934;2023-04-19T03:27:05;101530.69;;;6.77;86.99
18533;BME280;9396;51.510;11.934;2023-04-19T03:29:31;101528.59;;;6.82;87.80
18533;BME280;9396;51.510;11.934;2023-04-19T03:31:58;101523.41;;;6.81;88.03
18533;BME280;9396;51.510;11.934;2023-04-19T03:34:24;101519.50;;;6.86;88.78
18533;BME280;9396;51.510;11.934;2023-04-19T03:36:51;101514.34;;;6.85;88.04
18533;BME280;9396;51.510;11.934;2023-04-19T03:39:17;101513.78;;;6.80;88.89
18533;BME280;9396;51.510;11.934;2023-04-19T03:41:45;101512.50;;;6.73;89.49
18533;BME280;9396;51.510;11.934;2023-04-19T03:44:12;101515.75;;;6.64;89.65
18533;BME280;9396;51.510;11.934;2023-04-19T03:46:39;101508.06;;;6.73;89.45
18533;BME280;9396;51.510;11.934;2023-04-19T03:49:05;101515.25;;;6.84;89.23
18533;BME280;9396;51.510;11.934;2023-04-19T03:51:32;101519.53;;;6.99;89.71
18533;BME280;9396;51.510;11.934;2023-04-19T03:53:59;101493.56;;;6.79;87.82
18533;BME280;9396;51.510;11.934;2023-04-19T03:56:26;101515.19;;;6.85;88.65
18533;BME280;9396;51.510;11.934;2023-04-19T03:58:53;101513.72;;;6.94;88.51
18533;BME280;9396;51.510;11.934;2023-04-19T04:01:23;101518.44;;;6.76;90.18
18533;BME280;9396;51.510;11.934;2023-04-19T04:03:49;101515.50;;;6.93;89.63
18533;BME280;9396;51.510;11.934;2023-04-19T04:06:16;101513.50;;;6.97;89.66
18533;BME280;9396;51.510;11.934;2023-04-19T04:08:43;101508.97;;;6.99;89.15
18533;BME280;9396;51.510;11.934;2023-04-19T04:11:10;101514.47;;;6.96;88.43
18533;BME280;9396;51.510;11.934;2023-04-19T04:13:37;101517.19;;;7.07;88.73
18533;BME280;9396;51.510;11.934;2023-04-19T04:16:05;101519.31;;;7.02;88.43
18533;BME280;9396;51.510;11.934;2023-04-19T04:18:31;101520.47;;;6.85;89.23
18533;BME280;9396;51.510;11.934;2023-04-19T04:20:58;101505.22;;;6.76;89.52
18533;BME280;9396;51.510;11.934;2023-04-19T04:23:25;101513.75;;;6.67;90.28
18533;BME280;9396;51.510;11.934;2023-04-19T04:25:56;101503.84;;;6.71;89.80
18533;BME280;9396;51.510;11.934;2023-04-19T04:28:25;101506.63;;;6.82;89.97
18533;BME280;9396;51.510;11.934;2023-04-19T04:30:51;101506.31;;;6.99;87.47
18533;BME280;9396;51.510;11.934;2023-04-19T04:33:23;101502.91;;;6.84;87.93
18533;BME280;9396;51.510;11.934;2023-04-19T04:35:49;101509.13;;;6.71;87.92
18533;BME280;9396;51.510;11.934;2023-04-19T04:38:16;101504.66;;;6.59;88.84
18533;BME280;9396;51.510;11.934;2023-04-19T04:40:43;101506.59;;;6.69;88.05
18533;BME280;9396;51.510;11.934;2023-04-19T04:43:09;101509.97;;;6.84;87.75
18533;BME280;9396;51.510;11.934;2023-04-19T04:45:37;101514.88;;;6.90;86.66
18533;BME280;9396;51.510;11.934;2023-04-19T04:48:04;101523.47;;;6.67;87.62
18533;BME280;9396;51.510;11.934;2023-04-19T04:50:32;101515.69;;;6.78;88.15
18533;BME280;9396;51.510;11.934;2023-04-19T04:52:59;101517.53;;;7.02;87.54
18533;BME280;9396;51.510;11.934;2023-04-19T04:55:26;101519.00;;;6.94;86.15
18533;BME280;9396;51.510;11.934;2023-04-19T04:57:53;101513.59;;;6.95;85.50
18533;BME280;9396;51.510;11.934;2023-04-19T05:00:21;101517.63;;;6.88;85.08
18533;BME280;9396;51.510;11.934;2023-04-19T05:02:47;101519.72;;;6.83;85.53
18533;BME280;9396;51.510;11.934;2023-04-19T05:05:14;101512.13;;;7.04;86.10
18533;BME280;9396;51.510;11.934;2023-04-19T05:07:42;101515.22;;;7.23;85.82
18533;BME280;9396;51.510;11.934;2023-04-19T05:10:09;101516.16;;;6.97;84.28
18533;BME280;9396;51.510;11.934;2023-04-19T05:12:36;101517.28;;;6.93;83.26
18533;BME280;9396;51.510;11.934;2023-04-19T05:15:03;101515.25;;;6.84;84.58
18533;BME280;9396;51.510;11.934;2023-04-19T05:17:30;101518.59;;;6.61;84.62
18533;BME280;9396;51.510;11.934;2023-04-19T05:19:57;101517.72;;;6.87;84.78
18533;BME280;9396;51.510;11.934;2023-04-19T05:22:24;101516.16;;;6.97;83.91
18533;BME280;9396;51.510;11.934;2023-04-19T05:24:52;101517.81;;;6.98;84.48
18533;BME280;9396;51.510;11.934;2023-04-19T05:27:19;101517.22;;;7.19;82.48
18533;BME280;9396;51.510;11.934;2023-04-19T05:29:45;101513.19;;;7.39;84.05
18533;BME280;9396;51.510;11.934;2023-04-19T05:32:12;101511.06;;;7.56;83.10
18533;BME280;9396;51.510;11.934;2023-04-19T05:34:39;101513.63;;;7.71;82.12
18533;BME280;9396;51.510;11.934;2023-04-19T05:37:06;101513.84;;;7.30;81.13
18533;BME280;9396;51.510;11.934;2023-04-19T05:39:32;101510.44;;;7.53;82.66
18533;BME280;9396;51.510;11.934;2023-04-19T05:42:00;101506.94;;;7.78;81.44
18533;BME280;9396;51.510;11.934;2023-04-19T05:44:27;101515.94;;;7.75;79.40
18533;BME280;9396;51.510;11.934;2023-04-19T05:46:53;101505.75;;;7.69;78.50
18533;BME280;9396;51.510;11.934;2023-04-19T05:49:20;101513.72;;;7.56;80.36
18533;BME280;9396;51.510;11.934;2023-04-19T05:51:47;101504.63;;;7.35;80.10
18533;BME280;9396;51.510;11.934;2023-04-19T05:54:13;101501.03;;;7.49;81.16
18533;BME280;9396;51.510;11.934;2023-04-19T05:56:41;101499.66;;;7.43;80.80
18533;BME280;9396;51.510;11.934;2023-04-19T05:59:08;101505.59;;;7.34;81.33
18533;BME280;9396;51.510;11.934;2023-04-19T06:01:36;101511.53;;;7.38;82.67
18533;BME280;9396;51.510;11.934;2023-04-19T06:04:02;101508.34;;;7.08;81.55
18533;BME280;9396;51.510;11.934;2023-04-19T06:06:29;101497.94;;;7.17;82.27
18533;BME280;9396;51.510;11.934;2023-04-19T06:08:56;101494.38;;;7.31;81.98
18533;BME280;9396;51.510;11.934;2023-04-19T06:11:22;101504.63;;;7.48;81.92
18533;BME280;9396;51.510;11.934;2023-04-19T06:13:49;101501.56;;;7.41;79.81
18533;BME280;9396;51.510;11.934;2023-04-19T06:16:17;101496.28;;;7.29;79.33
18533;BME280;9396;51.510;11.934;2023-04-19T06:18:44;101491.03;;;8.50;78.69
18533;BME280;9396;51.510;11.934;2023-04-19T06:21:11;101482.97;;;10.30;76.51
18533;BME280;9396;51.510;11.934;2023-04-19T06:23:38;101480.47;;;11.52;71.01
18533;BME280;9396;51.510;11.934;2023-04-19T06:26:04;101472.06;;;11.77;69.15
18533;BME280;9396;51.510;11.934;2023-04-19T06:28:31;101479.38;;;12.53;66.18
18533;BME280;9396;51.510;11.934;2023-04-19T06:30:58;101491.00;;;11.74;65.39
18533;BME280;9396;51.510;11.934;2023-04-19T06:33:26;101478.19;;;13.32;64.54
18533;BME280;9396;51.510;11.934;2023-04-19T06:35:52;101469.91;;;13.62;65.11
18533;BME280;9396;51.510;11.934;2023-04-19T06:38:19;101477.78;;;14.27;64.36
18533;BME280;9396;51.510;11.934;2023-04-19T06:40:45;101472.91;;;15.01;63.18
18533;BME280;9396;51.510;11.934;2023-04-19T06:43:12;101469.63;;;15.33;62.89
18533;BME280;9396;51.510;11.934;2023-04-19T06:45:39;101476.41;;;14.58;62.33
18533;BME280;9396;51.510;11.934;2023-04-19T06:48:05;101480.47;;;13.90;62.00
18533;BME280;9396;51.510;11.934;2023-04-19T06:50:33;101480.06;;;13.95;64.01
18533;BME280;9396;51.510;11.934;2023-04-19T06:53:00;101467.00;;;14.72;63.35
18533;BME280;9396;51.510;11.934;2023-04-19T06:55:26;101471.56;;;14.79;61.83
18533;BME280;9396;51.510;11.934;2023-04-19T06:57:53;101478.03;;;15.12;62.00
18533;BME280;9396;51.510;11.934;2023-04-19T07:00:20;101472.66;;;14.51;62.93
18533;BME280;9396;51.510;11.934;2023-04-19T07:02:48;101474.38;;;14.25;62.71
18533;BME280;9396;51.510;11.934;2023-04-19T07:05:14;101464.84;;;14.75;64.56
18533;BME280;9396;51.510;11.934;2023-04-19T07:07:42;101459.44;;;14.32;62.03
18533;BME280;9396;51.510;11.934;2023-04-19T07:10:09;101447.09;;;14.74;62.73
18533;BME280;9396;51.510;11.934;2023-04-19T07:12:37;101449.84;;;14.82;63.09
18533;BME280;9396;51.510;11.934;2023-04-19T07:15:04;101440.47;;;14.43;61.66
18533;BME280;9396;51.510;11.934;2023-04-19T07:17:33;101444.34;;;15.10;61.97
18533;BME280;9396;51.510;11.934;2023-04-19T07:20:00;101438.44;;;14.80;62.31
18533;BME280;9396;51.510;11.934;2023-04-19T07:22:26;101436.22;;;14.58;63.28
18533;BME280;9396;51.510;11.934;2023-04-19T07:24:54;101439.88;;;14.92;62.26
18533;BME280;9396;51.510;11.934;2023-04-19T07:27:21;101444.19;;;14.68;64.14
18533;BME280;9396;51.510;11.934;2023-04-19T07:29:48;101435.88;;;14.53;61.34
18533;BME280;9396;51.510;11.934;2023-04-19T07:32:14;101440.75;;;14.75;62.77
18533;BME280;9396;51.510;11.934;2023-04-19T07:34:41;101428.06;;;15.29;60.42
18533;BME280;9396;51.510;11.934;2023-04-19T07:37:08;101442.47;;;15.02;61.09
18533;BME280;9396;51.510;11.934;2023-04-19T07:39:34;101431.13;;;15.67;61.36
18533;BME280;9396;51.510;11.934;2023-04-19T07:42:02;101438.41;;;15.24;62.61
18533;BME280;9396;51.510;11.934;2023-04-19T07:44:29;101433.88;;;14.38;61.38
18533;BME280;9396;51.510;11.934;2023-04-19T07:46:56;101432.97;;;14.47;62.23
18533;BME280;9396;51.510;11.934;2023-04-19T07:49:23;101445.63;;;13.82;63.60
18533;BME280;9396;51.510;11.934;2023-04-19T07:51:49;101440.28;;;13.46;64.65
18533;BME280;9396;51.510;11.934;2023-04-19T07:54:16;101431.19;;;13.39;67.28
18533;BME280;9396;51.510;11.934;2023-04-19T07:56:44;101434.94;;;13.19;68.44
18533;BME280;9396;51.510;11.934;2023-04-19T07:59:12;101435.28;;;13.70;68.06
18533;BME280;9396;51.510;11.934;2023-04-19T08:01:39;101435.59;;;13.67;64.34
18533;BME280;9396;51.510;11.934;2023-04-19T08:04:05;101431.00;;;13.13;64.92
18533;BME280;9396;51.510;11.934;2023-04-19T08:06:32;101432.72;;;12.57;65.07
18533;BME280;9396;51.510;11.934;2023-04-19T08:08:59;101430.72;;;12.87;66.90
18533;BME280;9396;51.510;11.934;2023-04-19T08:11:25;101427.28;;;12.49;65.92
18533;BME280;9396;51.510;11.934;2023-04-19T08:13:52;101418.81;;;12.53;69.10
18533;BME280;9396;51.510;11.934;2023-04-19T08:16:20;101424.31;;;12.61;70.61
18533;BME280;9396;51.510;11.934;2023-04-19T08:18:47;101421.06;;;12.86;68.48
18533;BME280;9396;51.510;11.934;2023-04-19T08:21:15;101423.75;;;12.48;66.70
18533;BME280;9396;51.510;11.934;2023-04-19T08:23:42;101407.63;;;12.40;67.70
18533;BME280;9396;51.510;11.934;2023-04-19T08:26:09;101416.81;;;11.98;66.75
18533;BME280;9396;51.510;11.934;2023-04-19T08:28:35;101418.41;;;12.29;67.61
18533;BME280;9396;51.510;11.934;2023-04-19T08:31:04;101409.69;;;12.46;67.68
18533;BME280;9396;51.510;11.934;2023-04-19T08:33:32;101412.38;;;12.65;68.38
18533;BME280;9396;51.510;11.934;2023-04-19T08:35:59;101411.13;;;12.60;69.58
18533;BME280;9396;51.510;11.934;2023-04-19T08:38:26;101401.25;;;12.79;72.35
18533;BME280;9396;51.510;11.934;2023-04-19T08:40:53;101399.59;;;12.69;67.83
18533;BME280;9396;51.510;11.934;2023-04-19T08:43:20;101404.91;;;12.59;66.54
18533;BME280;9396;51.510;11.934;2023-04-19T08:45:50;101395.09;;;12.50;67.63
18533;BME280;9396;51.510;11.934;2023-04-19T08:48:17;101391.63;;;12.96;70.07
18533;BME280;9396;51.510;11.934;2023-04-19T08:50:45;101388.28;;;13.04;67.64
18533;BME280;9396;51.510;11.934;2023-04-19T08:53:13;101391.53;;;12.78;67.16
18533;BME280;9396;51.510;11.934;2023-04-19T08:55:41;101384.97;;;12.63;67.56
18533;BME280;9396;51.510;11.934;2023-04-19T08:58:08;101382.47;;;12.52;66.25
18533;BME280;9396;51.510;11.934;2023-04-19T09:00:37;101381.53;;;12.90;67.37
18533;BME280;9396;51.510;11.934;2023-04-19T09:03:06;101381.31;;;12.74;69.86
18533;BME280;9396;51.510;11.934;2023-04-19T09:05:33;101374.00;;;12.76;69.72
18533;BME280;9396;51.510;11.934;2023-04-19T09:08:22;101363.63;;;12.63;68.00
18533;BME280;9396;51.510;11.934;2023-04-19T09:10:55;101366.84;;;12.67;68.62
18533;BME280;9396;51.510;11.934;2023-04-19T09:13:22;101360.50;;;12.77;68.13
18533;BME280;9396;51.510;11.934;2023-04-19T09:15:49;101371.38;;;12.38;66.42
18533;BME280;9396;51.510;11.934;2023-04-19T09:18:18;101371.09;;;12.31;66.59
18533;BME280;9396;51.510;11.934;2023-04-19T09:20:45;101366.56;;;12.60;67.60
18533;BME280;9396;51.510;11.934;2023-04-19T09:23:13;101346.03;;;12.70;69.50
18533;BME280;9396;51.510;11.934;2023-04-19T09:25:51;101349.59;;;12.23;65.88
18533;BME280;9396;51.510;11.934;2023-04-19T09:28:18;101347.81;;;12.05;70.82
18533;BME280;9396;51.510;11.934;2023-04-19T09:30:45;101193.72;;;11.32;70.26
18533;BME280;9396;51.510;11.934;2023-04-19T09:33:12;101338.38;;;12.01;67.08
18533;BME280;9396;51.510;11.934;2023-04-19T09:35:40;101331.63;;;12.25;70.50
18533;BME280;9396;51.510;11.934;2023-04-19T09:38:07;101322.38;;;12.29;67.91
18533;BME280;9396;51.510;11.934;2023-04-19T09:40:34;101333.91;;;12.30;68.36
18533;BME280;9396;51.510;11.934;2023-04-19T09:43:03;101328.25;;;12.23;68.01
18533;BME280;9396;51.510;11.934;2023-04-19T09:45:38;101336.69;;;12.09;64.96
18533;BME280;9396;51.510;11.934;2023-04-19T09:48:06;101349.03;;;11.81;65.25
18533;BME280;9396;51.510;11.934;2023-04-19T09:50:33;101321.25;;;11.65;65.64
18533;BME280;9396;51.510;11.934;2023-04-19T09:53:01;101317.31;;;11.78;68.44
18533;BME280;9396;51.510;11.934;2023-04-19T09:55:28;101275.88;;;11.55;66.31
18533;BME280;9396;51.510;11.934;2023-04-19T09:57:55;101315.25;;;12.01;66.93
18533;BME280;9396;51.510;11.934;2023-04-19T10:00:24;101319.44;;;12.04;66.31
18533;BME280;9396;51.510;11.934;2023-04-19T10:02:51;101250.25;;;11.64;65.69
18533;BME280;9396;51.510;11.934;2023-04-19T10:05:22;101303.44;;;11.84;67.42
18533;BME280;9396;51.510;11.934;2023-04-19T10:07:49;101294.75;;;11.92;65.74
18533;BME280;9396;51.510;11.934;2023-04-19T10:10:17;101285.47;;;12.06;64.06
18533;BME280;9396;51.510;11.934;2023-04-19T10:12:47;101276.63;;;12.15;64.32
18533;BME280;9396;51.510;11.934;2023-04-19T10:15:15;101285.59;;;12.23;66.17
18533;BME280;9396;51.510;11.934;2023-04-19T10:17:43;101284.47;;;12.16;64.43
18533;BME280;9396;51.510;11.934;2023-04-19T10:20:17;101281.94;;;12.05;62.21
18533;BME280;9396;51.510;11.934;2023-04-19T10:22:46;101275.25;;;12.01;63.08
18533;BME280;9396;51.510;11.934;2023-04-19T10:25:13;101267.06;;;12.31;66.70
18533;BME280;9396;51.510;11.934;2023-04-19T10:27:42;101251.69;;;12.43;65.54
18533;BME280;9396;51.510;11.934;2023-04-19T10:30:21;101260.72;;;12.32;63.77
18533;BME280;9396;51.510;11.934;2023-04-19T10:32:53;101262.72;;;12.11;61.81
18533;BME280;9396;51.510;11.934;2023-04-19T10:35:22;101261.34;;;11.88;62.41
18533;BME280;9396;51.510;11.934;2023-04-19T10:38:05;101250.66;;;11.78;62.05
18533;BME280;9396;51.510;11.934;2023-04-19T10:40:57;101253.31;;;12.07;64.60
18533;BME280;9396;51.510;11.934;2023-04-19T10:43:25;101236.19;;;12.19;61.98
18533;BME280;9396;51.510;11.934;2023-04-19T10:45:52;101194.94;;;12.04;62.50
18533;BME280;9396;51.510;11.934;2023-04-19T10:48:34;101230.56;;;12.22;61.04
18533;BME280;9396;51.510;11.934;2023-04-19T10:51:04;101221.72;;;12.22;60.53
18533;BME280;9396;51.510;11.934;2023-04-19T10:53:52;101225.69;;;12.08;60.50
18533;BME280;9396;51.510;11.934;2023-04-19T10:56:21;101218.78;;;12.15;61.90
18533;BME280;9396;51.510;11.934;2023-04-19T10:59:15;101222.00;;;12.19;60.17
18533;BME280;9396;51.510;11.934;2023-04-19T11:01:52;101220.75;;;12.23;60.67
18533;BME280;9396;51.510;11.934;2023-04-19T11:07:04;101206.31;;;12.52;60.80
18533;BME280;9396;51.510;11.934;2023-04-19T11:09:32;101201.03;;;12.70;60.83
18533;BME280;9396;51.510;11.934;2023-04-19T11:12:01;101193.69;;;12.81;58.49
18533;BME280;9396;51.510;11.934;2023-04-19T11:14:33;101196.03;;;12.57;59.80
18533;BME280;9396;51.510;11.934;2023-04-19T11:17:12;101197.31;;;12.53;62.23
18533;BME280;9396;51.510;11.934;2023-04-19T11:19:43;101181.97;;;12.65;60.95
18533;BME280;9396;51.510;11.934;2023-04-19T11:22:10;101181.31;;;12.80;61.62
18533;BME280;9396;51.510;11.934;2023-04-19T11:24:36;101177.59;;;12.64;58.51
18533;BME280;9396;51.510;11.934;2023-04-19T11:27:07;101179.94;;;12.49;59.66
18533;BME280;9396;51.510;11.934;2023-04-19T11:29:34;101178.63;;;12.53;59.70
18533;BME280;9396;51.510;11.934;2023-04-19T11:32:01;101169.16;;;12.32;60.20
18533;BME280;9396;51.510;11.934;2023-04-19T11:34:28;101173.97;;;12.55;60.31
18533;BME280;9396;51.510;11.934;2023-04-19T11:36:56;101159.50;;;12.58;60.72
18533;BME280;9396;51.510;11.934;2023-04-19T11:39:22;101151.16;;;12.70;61.67
18533;BME280;9396;51.510;11.934;2023-04-19T11:41:49;101158.16;;;12.71;60.65
18533;BME280;9396;51.510;11.934;2023-04-19T11:44:16;101153.31;;;12.84;62.33
18533;BME280;9396;51.510;11.934;2023-04-19T11:46:59;101153.81;;;12.98;61.84
18533;BME280;9396;51.510;11.934;2023-04-19T11:49:27;101155.31;;;13.00;60.27
18533;BME280;9396;51.510;11.934;2023-04-19T11:52:00;101144.66;;;13.00;61.24
18533;BME280;9396;51.510;11.934;2023-04-19T11:54:27;101150.94;;;13.09;62.59
18533;BME280;9396;51.510;11.934;2023-04-19T11:57:01;101148.53;;;12.88;60.15
18533;BME280;9396;51.510;11.934;2023-04-19T11:59:29;101146.69;;;12.88;60.57
18533;BME280;9396;51.510;11.934;2023-04-19T12:02:04;101148.22;;;12.91;61.51
18533;BME280;9396;51.510;11.934;2023-04-19T12:04:30;101145.53;;;12.73;63.34
18533;BME280;9396;51.510;11.934;2023-04-19T12:06:59;101148.44;;;12.53;61.74
18533;BME280;9396;51.510;11.934;2023-04-19T12:09:26;101143.16;;;12.43;62.94
18533;BME280;9396;51.510;11.934;2023-04-19T12:11:53;101149.13;;;12.28;64.01
18533;BME280;9396;51.510;11.934;2023-04-19T12:14:21;101149.16;;;12.18;62.36
18533;BME280;9396;51.510;11.934;2023-04-19T12:17:08;101145.53;;;12.10;62.62
18533;BME280;9396;51.510;11.934;2023-04-19T12:19:37;101146.09;;;12.13;64.05
18533;BME280;9396;51.510;11.934;2023-04-19T12:22:10;101130.28;;;12.29;64.14
18533;BME280;9396;51.510;11.934;2023-04-19T12:24:37;101128.03;;;12.34;62.33
18533;BME280;9396;51.510;11.934;2023-04-19T12:27:04;101126.75;;;12.38;63.00
18533;BME280;9396;51.510;11.934;2023-04-19T12:29:31;101133.38;;;12.25;63.54
18533;BME280;9396;51.510;11.934;2023-04-19T12:31:58;101135.25;;;12.15;61.92
18533;BME280;9396;51.510;11.934;2023-04-19T12:34:25;101118.84;;;12.19;64.50
18533;BME280;9396;51.510;11.934;2023-04-19T12:36:51;101130.53;;;11.99;62.22
18533;BME280;9396;51.510;11.934;2023-04-19T12:39:19;101125.94;;;11.92;63.58
18533;BME280;9396;51.510;11.934;2023-04-19T12:41:46;101115.50;;;11.98;62.82
18533;BME280;9396;51.510;11.934;2023-04-19T12:44:14;101118.63;;;12.03;62.73
18533;BME280;9396;51.510;11.934;2023-04-19T12:46:41;101123.19;;;12.11;63.92
18533;BME280;9396;51.510;11.934;2023-04-19T12:49:07;101111.47;;;11.94;62.38
18533;BME280;9396;51.510;11.934;2023-04-19T12:51:34;101104.81;;;12.17;66.12
18533;BME280;9396;51.510;11.934;2023-04-19T12:54:00;101112.09;;;12.15;61.78
18533;BME280;9396;51.510;11.934;2023-04-19T12:56:29;101104.81;;;12.08;62.68
18533;BME280;9396;51.510;11.934;2023-04-19T12:58:55;101103.78;;;12.28;63.60
18533;BME280;9396;51.510;11.934;2023-04-19T13:01:22;101105.41;;;12.38;65.31